Groundwater Watch Latest News...



Cochise County, Arizona
Click site symbol to open information pop-up. Click Station ID in pop-up for information and data.
Map loading slowly? Try a different browser. Web browser performance varies significantly.
Explanation of symbols on the state map.

Map generated 9/20/2019 11:49:56 AM
Groundwater Watch
Help Page
     

Network wells depicted on the Cochise County, AZ location map
Note: Color shading in the table below indicates multiple wells that plot as a single point on the state location map above.
Note: BLS = Water Level in Feet Below Land Surface, RVD = Water Level referenced to a vertical datum
Map
Index
Site ID Site NameMost Recent
Measurement
DateWell
Depth
Local Aquifer
1 312044110141901 D-24-21 17BCB3 [Baumkirchner 3]  34.72 BLS 9/19/2019   123.67  
2 312127110073101 D-24-22 08DBA1 [PLS-LI]   7.18 BLS 6/26/2019      17.  
3 312127110073301 D-24-22 08DBA2 [PLS-LO]  11.36 BLS 6/26/2019      19.  
4 312207110070702 D-24-22 04CBA4 [PAL-UD]  17.12 BLS 6/26/2019      32.  
5 312208110070502 D-24-22 04CBA2 [PAL-LD]   7.52 BLS 6/26/2019      24.  
6 312214110071601 D-24-22 04CBC1 [PALUWS]  18.64 BLS 6/26/2019    36.5   
7 312214110071602 D-24-22 04CBC2 [PALUWD]  18.04 BLS 6/26/2019    73.5   
8 312226110062101 D-24-22 04ADD [PAL-SA]  33.34 BLS 6/26/2019      49.  
9 312250110063901 D-23-22 33DCD2 [PAL Deep]  16.5  BLS 7/18/2019    91.5   
10 312318110071901 D-23-22 33BCC [PALO FIREHOUSE]  42.5  BLS 7/18/2019     220.   Holocene Alluvium
11 312323110020901 D-23-23 32BCB [Foudy] 264.0  BLS 6/27/2019     270.  
12 312332110063801 D-23-22 33ABD02 [ULLRICH]  16.4  BLS 11/11/2018     200.   Holocene Alluvium
13 312357110073901 D-23-22 29DBD1 [3-CAN S]  77.2  BLS 7/18/2019     460.  
14 312417110074801 D-23-22 29ACB1 [3-CAN N]  78.7  BLS 7/18/2019     460.  
15 312453110061101 D-23-22 22CBB3 [KOL-UP]  10.09 BLS 6/26/2019      16.  
16 312453110061301 D-23-22 22CBB2 [KOL-LO]   9.06 BLS 6/26/2019      20.  
17 312453110061401 D-23-22 22CBB1 [KOL-LI]   9.37 BLS 6/26/2019      20.  
18 312642110063701 D-23-22 09ACD1 [HERSUS]  17.08 BLS 6/26/2019      93.  
19 312642110063702 D-23-22 09ACD2 [HERSUD]  17.32 BLS 6/26/2019     134.  
20 312712110152101 D-23-21 06CCC2 [Rambo]  17.2  BLS 6/26/2019     675.  
21 312716110063201 D-23-22 04DCD1 [HER-LS]   5.22 BLS 6/26/2019    14.23  
22 312716110063202 D-23-22 04DCD2 [HER-LD]   5.58 BLS 6/26/2019    22.82  
23 312716110063302 D-23-22 04DCD4 [HERUED]   7.04 BLS 6/26/2019      28.  
24 312830110102301 D-22-21 35ADD1 PZ1 [Ranch Deep] 141.7  BLS 7/18/2019     240.  
25 312830110102302 D-22-21 35ADD1 PZ2 [Ranch Shallow] 141.8  BLS 7/18/2019     180.  
26 312843110070801 D-22-22 33BBC [HUN-UP]  27.91 BLS 6/26/2019      31.  
27 312853110070401 D-22-22 28CCD [HUN-SO]   7.77 BLS 6/26/2019      15.  
28 312900110071001 D-22-22 28CAA2 [HUN-LO]   7.09 BLS 6/26/2019      15.  
29 312943110165401 D-22-20 26ABB1 [Antelope 3] 112.8  BLS 6/26/2019     290.  
30 313024110050701 D-22-22 23BCA [Misty Ray] 234.6  BLS 6/25/2019    
31 313105110074501 D-22-22 17ACC3 [COTBLM]  17.26 BLS 6/25/2019    22.5   
32 313108110075202 D-22-22 17BDD2 [COTUWD]   3.35 BLS 6/25/2019    68.5   
33 313110110074402 D-22-22 17ACC2 [COT-LD]   2.98 BLS 6/25/2019    12.8   
34 313210110105701 D-22-21 11BDA1 [SB Ranch] 121.1  BLS 6/25/2019     225.  
35 313309110094301 D-22-22 06ABD [LSP-6]  29.65 BLS 8/2/2019     180.  
36 313312110081302 D-22-22 05BBD2 [LSPUED]  10.01 BLS 6/25/2019    53.5   
37 313312110082301 D-22-22 06AAA4 [LSP-4]  10.59 BLS 9/18/2019      24.  
38 313312110082302 D-22-22 06AAA6 [LSP-1]  10.98 BLS 8/2/2019    34.5   
39 313312110082303 D-22-22 06AAA5 [LSP-5]   5.95 BLS 8/2/2019     180.  
40 313312110082501 D-22-22 06AAA7 [LSP-2]   5.79 BLS 8/2/2019     199.  
41 313312110082502 D-22-22 06AAA3 [LSP-3]  10.66 BLS 8/2/2019      24.  
42 313421110121401 D-21-21 27CBD [Bella Vista]  99.5  BLS 7/18/2019     150.  
43 313502110145701 D-21-21 19CDD1 [MW-3] 246.91 BLS 6/25/2019     400.  
44 313508110085701 D-21-22 19CDB1 [CLRSUS]  16.17 BLS 6/27/2019    63.5   
45 313508110085702 D-21-22 19CDB2 [CLRSUD]  15.27 BLS 6/27/2019   173.5   
46 313530110135601 D-21-21 20ACC1 [MW-4] 187.48 BLS 6/25/2019     215.  
47 313610110163201 D-21-20 14DAD1 [MW-6] 284.22 BLS 6/25/2019     400.  
48 313615110175601 D-21-20 15ACD1 [TW-4] 302.02 BLS 6/25/2019     807.  
49 313618110162301 D-21-20 13CBD1 [TW-8] 271.54 BLS 6/25/2019    1501.  
50 313622110142101 D-21-21 17BCC1 [TW-9] 181.60 BLS 6/25/2019    1005.  
51 313633110122501 D-21-21 16AAD1 [MW-5]  95.88 BLS 6/25/2019     115.  
52 313638110095901 D-21-21 13BAC1 [MOSWAS]  12.32 BLS 6/27/2019    24.2   
53 313642110100102 D-21-21 13BAB4 [MOSLNW]   7.89 BLS 6/27/2019    20.2   
54 313643110100101 D-21-21 13BAB1 [MOSLNS]   4.65 BLS 6/27/2019    12.79  
55 313643110100102 D-21-21 13BAB2 [MOSLND]   4.70 BLS 6/27/2019    20.79  
56 313706110171601 D-21-20 11BCD1 [TW-7] 238.31 BLS 6/25/2019    1002.  
57 313721110112401 D-21-21 10ADA1 [MW-1]  68.12 BLS 6/25/2019     180.  
58 313729110182501 D-21-20 10BBD1 [TW-9W] 241.58 BLS 6/25/2019     819.   Basement
59 313729110185601 D-21-20 09ABC1 [MW-2] 257.16 BLS 6/25/2019     400.  
60 313738110102901 D-21-21 02DDC [CHB-LI]   7.67 BLS 6/28/2019      21.  
61 313841110122201 D-20-21 33CDD1 [MW-7] 105.22 BLS 6/25/2019     220.  
62 313845110165201 D-20-20 35CCB1 [TW-6] 169.48 BLS 6/25/2019    1004.  
63 314114110211201 D-20-19 13DDC1 [RAIN] 282.48 BLS 6/24/2019  630     
64 314124110105801 D-20-21 15DDB [BOQ-UP]  22.44 BLS 6/28/2019      36.  
65 314144110104701 D-20-21 14BCC1 [BOQSUS]  28.63 BLS 6/28/2019    53.5   
66 314144110104702 D-20-21 14BCC2 [BOQSUD]  12.58 BLS 6/28/2019   178.5   
67 314248110105901 D-20-21 10AAC2 [FBK-UP]  32.68 BLS 6/28/2019      50.  
68 314317110113401 D-20-21 03CBA [FBK-LI]  15.41 BLS 6/28/2019      18.  
69 314318110113101 D-20-21 03CAB [FBK-LO]  15.47 BLS 6/28/2019    22.8   
70 314511110120601 D-19-21 28ACD [TOM-LI]  15.23 BLS 6/28/2019    17.6   


Springs depicted on the Cochise County , AZ location map
Map
Index
Site ID Site NameMost Recent
Measurement
Date
SP1 313228110092701 D-21-21 36DDA [HORSETHIEF]0.00 CFS 6/27/2019
SP2 313425110102301 D-21-21 26DAD [MURRAY]0.12 CFS 6/27/2019
SP3 313456110081901 D-21-22 30AAA [LEWIS]0.02 CFS 6/25/2019
SP4 313624110101401 D-21-21 13BCC [MOSON]0.02 CFS 6/27/2019


   


*References to non-Department of the Interior (DOI) products do not constitute an endorsement by the DOI.

Accessibility FOIA Privacy Policies and Notices

Take Pride in America logo USA.gov logo U.S. Department of the Interior | U.S. Geological Survey
URL: https://groundwaterwatch.usgs.gov/CountyMap.asp
Page Contact Information: Contact the USGS Office of Groundwater
Last update: 7/23/2019 7:34:05 AM